Time;durP1;ratioP1;P1;durP2;ratioP2;P2;SDS_P1;SDS_P2;PMS_P1;PMS_P2;Temp;Humidity;BMP_temperature;BMP_pressure;BME280_temperature;BME280_humidity;BME280_pressure;Samples;Min_cycle;Max_cycle;Signal;HPM_P1;HPM_P2
2022/04/04 00:03:58;;;;;;;6.00;4.10;;;;;;;-0.18;53.19;99673.61;215552;1277;140045;-67
2022/04/04 00:09:01;;;;;;;6.50;4.00;;;;;;;-0.17;53.15;99670.70;214076;1277;139654;-68
2022/04/04 00:14:05;;;;;;;5.90;4.10;;;;;;;-0.17;53.30;99664.77;212935;1279;140042;-64
2022/04/04 00:19:08;;;;;;;6.00;4.80;;;;;;;-0.17;53.49;99657.27;214685;1277;140334;-65
2022/04/04 00:24:11;;;;;;;10.30;4.60;;;;;;;-0.15;53.53;99655.49;213300;1277;139686;-63
2022/04/04 00:29:15;;;;;;;6.20;4.00;;;;;;;-0.13;53.60;99648.55;212890;1279;150493;-63
2022/04/04 00:34:20;;;;;;;7.70;4.30;;;;;;;-0.12;53.72;99644.48;214826;1277;141641;-64
2022/04/04 00:39:26;;;;;;;7.80;5.00;;;;;;;-0.13;53.77;99638.17;213077;1279;142286;-64
2022/04/04 00:44:28;;;;;;;9.90;5.10;;;;;;;-0.16;53.84;99640.41;212493;1279;140752;-63
2022/04/04 00:49:32;;;;;;;11.40;5.40;;;;;;;-0.22;54.01;99638.22;213379;1279;141034;-64
2022/04/04 00:54:35;;;;;;;9.70;4.90;;;;;;;-0.31;53.98;99635.27;213376;1277;139330;-64
2022/04/04 00:59:39;;;;;;;7.40;4.10;;;;;;;-0.41;54.26;99626.29;214355;1277;141004;-65
2022/04/04 01:04:42;;;;;;;9.50;5.10;;;;;;;-0.50;54.42;99617.05;213265;1278;140360;-66
2022/04/04 01:09:45;;;;;;;10.30;5.50;;;;;;;-0.59;54.50;99610.86;213776;1279;139242;-66
2022/04/04 01:14:49;;;;;;;8.90;5.80;;;;;;;-0.66;54.65;99613.91;215002;1277;141264;-69
2022/04/04 01:19:53;;;;;;;7.70;5.40;;;;;;;-0.73;54.96;99612.77;213783;1279;141301;-69
2022/04/04 01:24:59;;;;;;;10.10;5.50;;;;;;;-0.80;55.14;99602.88;214126;1277;143206;-66
2022/04/04 01:30:04;;;;;;;8.20;6.00;;;;;;;-0.85;55.44;99604.98;213674;1277;141297;-64
2022/04/04 01:35:10;;;;;;;7.80;5.00;;;;;;;-0.90;55.76;99598.92;213121;1279;141765;-63
2022/04/04 01:40:13;;;;;;;8.10;4.90;;;;;;;-0.97;55.80;99595.80;213157;1279;140378;-64
2022/04/04 01:45:16;;;;;;;9.50;6.80;;;;;;;-1.03;56.33;99590.21;213823;1277;141744;-64
2022/04/04 01:50:18;;;;;;;13.10;6.70;;;;;;;-1.09;56.51;99587.45;215424;1277;141152;-67
2022/04/04 01:55:20;;;;;;;11.00;5.90;;;;;;;-1.14;56.74;99571.70;214355;1279;143268;-66
2022/04/04 02:00:22;;;;;;;9.80;6.20;;;;;;;-1.19;56.95;99564.89;215596;1277;141810;-66
2022/04/04 02:05:25;;;;;;;9.80;6.40;;;;;;;-1.23;56.98;99562.15;215789;1277;139724;-69
2022/04/04 02:10:28;;;;;;;12.70;8.00;;;;;;;-1.25;57.33;99564.13;215854;1277;139747;-70
2022/04/04 02:15:31;;;;;;;11.70;6.50;;;;;;;-1.27;57.69;99557.19;215130;1277;140720;-67
2022/04/04 02:20:34;;;;;;;9.90;5.90;;;;;;;-1.27;57.72;99551.93;213829;1279;139767;-69
2022/04/04 02:25:37;;;;;;;7.20;5.20;;;;;;;-1.25;58.02;99542.70;214908;1277;141452;-68
2022/04/04 02:30:41;;;;;;;8.50;5.20;;;;;;;-1.22;58.43;99543.38;215521;1277;140668;-68
2022/04/04 02:35:45;;;;;;;6.00;4.70;;;;;;;-1.17;58.65;99544.77;214898;1277;139741;-66
2022/04/04 02:40:50;;;;;;;11.50;7.50;;;;;;;-1.12;58.77;99544.88;215177;1277;142443;-69
2022/04/04 02:45:52;;;;;;;11.70;6.40;;;;;;;-1.04;58.92;99540.89;214943;1277;140213;-66
2022/04/04 02:50:57;;;;;;;7.70;4.30;;;;;;;-0.97;58.99;99531.30;214759;1277;140074;-67
2022/04/04 03:01:22;;;;;;;13.30;8.50;;;;;;;-0.86;59.20;99517.54;213609;1277;142764;-63
2022/04/04 03:06:26;;;;;;;10.90;7.30;;;;;;;-0.82;59.43;99520.90;213976;1277;140862;-65
2022/04/04 03:11:29;;;;;;;13.20;6.80;;;;;;;-0.78;59.48;99522.76;212939;1277;140677;-66
2022/04/04 03:16:34;;;;;;;11.00;5.90;;;;;;;-0.76;59.67;99515.86;214171;1277;140015;-67
2022/04/04 03:21:40;;;;;;;11.10;7.20;;;;;;;-0.71;59.75;99520.95;213023;1279;140266;-67
2022/04/04 03:26:47;;;;;;;10.00;5.90;;;;;;;-0.66;59.99;99525.85;214034;1277;140221;-69
2022/04/04 03:31:49;;;;;;;9.70;6.80;;;;;;;-0.61;59.97;99518.91;213757;1277;161484;-65
2022/04/04 03:36:53;;;;;;;10.60;7.70;;;;;;;-0.57;60.22;99512.55;213427;1279;140838;-65
2022/04/04 03:41:58;;;;;;;10.50;6.50;;;;;;;-0.54;60.37;99514.30;214102;1277;140377;-68
2022/04/04 03:47:02;;;;;;;12.40;7.00;;;;;;;-0.50;60.33;99512.44;214837;1279;140374;-69
2022/04/04 03:52:06;;;;;;;8.30;4.80;;;;;;;-0.45;60.28;99499.69;214255;1277;140284;-68
2022/04/04 03:57:09;;;;;;;11.30;5.80;;;;;;;-0.41;60.42;99497.52;214709;1277;140805;-66
2022/04/04 04:02:12;;;;;;;7.90;5.50;;;;;;;-0.37;60.39;99490.92;214525;1277;140833;-67
2022/04/04 04:07:15;;;;;;;9.70;4.90;;;;;;;-0.34;60.60;99488.69;215536;1277;142196;-71
2022/04/04 04:12:20;;;;;;;9.30;5.90;;;;;;;-0.30;60.61;99489.63;215309;1279;140922;-70
2022/04/04 04:17:24;;;;;;;10.50;5.70;;;;;;;-0.26;60.68;99490.23;215292;1277;140674;-67
2022/04/04 04:22:27;;;;;;;12.70;7.20;;;;;;;-0.22;60.83;99495.39;215490;1278;142095;-67
2022/04/04 04:27:30;;;;;;;10.80;6.30;;;;;;;-0.17;61.23;99492.07;214580;1277;140906;-65
2022/04/04 04:32:33;;;;;;;7.20;4.00;;;;;;;-0.13;61.76;99497.15;215541;1277;140833;-66
2022/04/04 04:37:36;;;;;;;14.80;5.20;;;;;;;-0.09;62.03;99494.81;214632;1279;140857;-67
2022/04/04 04:42:39;;;;;;;8.80;6.30;;;;;;;-0.07;62.45;99494.77;214064;1277;140750;-65
2022/04/04 04:47:43;;;;;;;10.20;5.30;;;;;;;-0.06;62.81;99496.05;214573;1279;140854;-67
2022/04/04 04:52:48;;;;;;;11.90;6.70;;;;;;;-0.06;63.05;99498.15;214843;1277;141010;-66
2022/04/04 04:57:53;;;;;;;9.70;5.20;;;;;;;-0.04;63.37;99498.82;212835;1277;142123;-65
2022/04/04 05:08:19;;;;;;;10.10;6.20;;;;;;;0.03;64.01;99489.29;213455;1277;140731;-67
2022/04/04 05:13:22;;;;;;;9.40;7.30;;;;;;;0.07;64.22;99487.89;213085;1277;141543;-70
2022/04/04 05:18:29;;;;;;;7.40;5.40;;;;;;;0.10;64.16;99484.80;212622;1279;140851;-65
2022/04/04 05:23:34;;;;;;;13.60;6.60;;;;;;;0.14;64.47;99482.19;212978;1277;140525;-63
2022/04/04 05:28:42;;;;;;;7.80;6.40;;;;;;;0.22;64.62;99487.39;213019;1279;140399;-63
2022/04/04 05:33:45;;;;;;;11.20;7.10;;;;;;;0.30;64.64;99479.81;213986;1277;141268;-67
2022/04/04 05:38:51;;;;;;;9.70;7.50;;;;;;;0.41;64.57;99481.40;213049;1277;140996;-65
2022/04/04 05:43:56;;;;;;;8.70;6.60;;;;;;;0.55;64.50;99481.05;214019;1277;140334;-66
2022/04/04 05:49:00;;;;;;;10.70;5.70;;;;;;;0.63;64.43;99485.29;214583;1277;140033;-65
2022/04/04 05:54:04;;;;;;;8.00;6.10;;;;;;;0.76;64.30;99484.86;213619;1277;140950;-65
2022/04/04 05:59:07;;;;;;;12.90;7.00;;;;;;;0.93;64.23;99485.13;214128;1279;140563;-65
2022/04/04 06:04:10;;;;;;;8.50;6.10;;;;;;;1.20;64.50;99483.34;214006;1277;140649;-69
2022/04/04 06:09:13;;;;;;;10.10;7.20;;;;;;;1.60;64.03;99480.52;214492;1277;236746;-69
2022/04/04 06:14:16;;;;;;;10.70;6.30;;;;;;;1.99;63.65;99479.52;215218;1279;142028;-71
2022/04/04 06:19:20;;;;;;;7.40;5.50;;;;;;;2.35;63.37;99484.73;215370;1277;151031;-76
2022/04/04 06:24:23;;;;;;;7.70;6.90;;;;;;;2.71;63.15;99481.86;215259;1276;139675;-72
2022/04/04 06:29:27;;;;;;;10.80;6.00;;;;;;;3.09;62.56;99476.76;215472;1277;140119;-69
2022/04/04 06:34:30;;;;;;;6.00;5.30;;;;;;;3.55;62.29;99472.36;215752;1277;141329;-68
2022/04/04 06:39:33;;;;;;;6.10;5.20;;;;;;;3.96;61.64;99469.02;215502;1279;140881;-68
2022/04/04 06:44:35;;;;;;;6.20;5.50;;;;;;;4.31;61.11;99465.50;213835;1277;140821;-67
2022/04/04 06:49:40;;;;;;;8.70;6.20;;;;;;;4.72;60.78;99463.73;213293;1278;140557;-68
2022/04/04 06:54:44;;;;;;;11.80;6.40;;;;;;;5.04;60.13;99462.05;213381;1278;140685;-72
2022/04/04 06:59:48;;;;;;;6.90;5.30;;;;;;;5.29;59.54;99461.95;213938;1277;139978;-70
2022/04/04 07:04:52;;;;;;;8.70;4.90;;;;;;;5.55;59.29;99462.94;213427;1278;140121;-70
2022/04/04 07:09:56;;;;;;;9.90;6.20;;;;;;;5.76;58.67;99456.61;213267;1277;139260;-67
2022/04/04 07:15:03;;;;;;;8.90;6.00;;;;;;;5.90;58.17;99457.40;214255;1277;139652;-69
2022/04/04 07:20:08;;;;;;;5.60;4.60;;;;;;;6.15;58.07;99447.05;213818;1277;139705;-67
2022/04/04 07:25:12;;;;;;;24.90;11.70;;;;;;;6.63;57.59;99445.83;213190;1278;139363;-65
2022/04/04 07:30:17;;;;;;;63.20;21.50;;;;;;;6.89;56.65;99442.92;212711;1278;140644;-66
2022/04/04 07:35:21;;;;;;;8.40;5.80;;;;;;;7.01;56.57;99440.48;213787;1278;141242;-70
2022/04/04 07:40:24;;;;;;;8.70;4.70;;;;;;;7.38;56.42;99439.67;212765;1278;139808;-68
2022/04/04 07:45:29;;;;;;;10.40;5.50;;;;;;;8.13;56.17;99427.43;213785;1276;139873;-70
2022/04/04 07:50:36;;;;;;;5.70;4.80;;;;;;;8.81;55.81;99424.92;213709;1278;140252;-69
2022/04/04 07:55:40;;;;;;;4.10;3.70;;;;;;;9.35;54.78;99415.70;214166;1278;141032;-69
2022/04/04 08:00:46;;;;;;;4.10;3.70;;;;;;;9.62;53.70;99406.77;212650;1278;139660;-69
2022/04/04 08:05:49;;;;;;;6.00;4.00;;;;;;;9.56;53.43;99405.13;212676;1279;139572;-68
2022/04/04 08:10:52;;;;;;;7.20;4.30;;;;;;;9.33;52.67;99405.14;214430;1278;139822;-67
2022/04/04 08:15:56;;;;;;;5.20;4.70;;;;;;;9.07;52.41;99399.95;214686;1278;139722;-69
2022/04/04 08:20:59;;;;;;;4.20;3.90;;;;;;;8.71;51.88;99393.45;215238;1278;140335;-71
2022/04/04 08:26:07;;;;;;;9.70;3.60;;;;;;;8.93;52.95;99387.62;214296;1278;140483;-69
2022/04/04 08:31:12;;;;;;;4.20;3.80;;;;;;;9.52;52.71;99384.55;213993;1279;141172;-70
2022/04/04 08:36:16;;;;;;;3.60;3.30;;;;;;;9.58;51.68;99374.87;215496;1279;140737;-76
2022/04/04 08:41:21;;;;;;;5.60;3.80;;;;;;;9.43;51.06;99367.73;215450;1277;139670;-67
2022/04/04 08:46:29;;;;;;;14.40;4.50;;;;;;;9.39;50.70;99360.95;215060;1279;140024;-67
2022/04/04 08:51:32;;;;;;;3.60;3.30;;;;;;;9.26;50.36;99355.45;214634;1277;140307;-67
2022/04/04 08:56:34;;;;;;;6.40;3.60;;;;;;;9.27;50.14;99357.30;214869;1279;139574;-68
2022/04/04 09:01:36;;;;;;;10.90;3.80;;;;;;;8.94;49.94;99344.69;213494;1278;139733;-70
2022/04/04 09:06:56;;;;;;;9.00;3.70;;;;;;;9.12;50.32;99333.21;214444;1277;139914;-70
2022/04/04 09:12:05;;;;;;;5.60;3.50;;;;;;;9.47;50.11;99328.61;214489;1277;139912;-70
2022/04/04 09:17:10;;;;;;;8.60;3.60;;;;;;;9.62;49.45;99323.21;214353;1277;140041;-70
2022/04/04 09:22:15;;;;;;;4.70;3.10;;;;;;;9.74;49.33;99311.20;214755;1278;139934;-69
2022/04/04 09:27:22;;;;;;;3.10;2.80;;;;;;;9.83;48.23;99308.52;213611;1277;139939;-65
2022/04/04 09:32:39;;;;;;;5.70;4.90;;;;;;;9.36;47.74;99294.15;212763;1277;140263;-67
2022/04/04 09:37:44;;;;;;;4.00;3.50;;;;;;;8.87;47.49;99288.72;213110;1278;140632;-70
2022/04/04 09:42:52;;;;;;;6.20;3.50;;;;;;;8.63;47.97;99285.28;213355;1277;141472;-68
2022/04/04 09:48:07;;;;;;;7.40;3.50;;;;;;;8.55;48.08;99277.93;213249;1278;139554;-68
2022/04/04 09:53:19;;;;;;;6.50;2.50;;;;;;;8.41;47.87;99274.07;213595;1278;139395;-69
2022/04/04 09:58:26;;;;;;;9.60;4.90;;;;;;;8.37;48.34;99264.20;213775;1278;139174;-69
2022/04/04 10:03:31;;;;;;;3.60;3.30;;;;;;;8.45;48.13;99252.45;214088;1278;139342;-68
2022/04/04 10:08:37;;;;;;;3.40;2.70;;;;;;;8.54;48.27;99241.58;213869;1277;139031;-69
2022/04/04 10:13:39;;;;;;;13.50;3.40;;;;;;;8.86;48.39;99233.25;214151;1276;669698;-69
2022/04/04 10:18:46;;;;;;;4.10;2.80;;;;;;;9.27;47.63;99229.73;213314;1277;141944;-68
2022/04/04 10:23:53;;;;;;;3.10;2.80;;;;;;;9.73;47.63;99221.04;213146;1278;142845;-69
2022/04/04 10:29:20;;;;;;;3.40;2.30;;;;;;;9.70;46.81;99217.64;214330;1278;140870;-69
2022/04/04 10:34:25;;;;;;;3.40;2.10;;;;;;;9.61;46.50;99209.14;215492;1279;142188;-69
2022/04/04 10:39:32;;;;;;;2.10;1.70;;;;;;;9.45;46.01;99204.68;213695;1277;141501;-68
2022/04/04 10:44:49;;;;;;;2.40;2.20;;;;;;;9.36;46.14;99204.36;215615;1277;140094;-71
2022/04/04 10:49:51;;;;;;;3.50;2.40;;;;;;;9.35;45.89;99199.07;215553;1278;140450;-70
2022/04/04 10:54:54;;;;;;;2.90;2.00;;;;;;;9.37;46.26;99189.39;215532;1277;140571;-69
2022/04/04 10:59:57;;;;;;;4.90;3.40;;;;;;;9.44;46.28;99185.40;214704;1279;140298;-69
2022/04/04 11:10:38;;;;;;;2.80;2.60;;;;;;;9.28;45.66;99175.77;214609;1278;140362;-68
2022/04/04 11:15:55;;;;;;;2.70;2.40;;;;;;;9.13;46.23;99166.52;213199;1278;141470;-69
2022/04/04 11:21:00;;;;;;;4.50;3.20;;;;;;;9.17;46.22;99156.11;212928;1279;142237;-67
2022/04/04 11:26:08;;;;;;;6.30;3.90;;;;;;;9.06;46.12;99156.19;213624;1278;141363;-68
2022/04/04 11:31:10;;;;;;;;;;;;;;;9.31;46.46;99137.41;213111;1278;141612;-69
2022/04/04 11:36:28;;;;;;;4.50;3.40;;;;;;;9.18;46.67;99128.79;213703;1278;221918;-69
2022/04/04 11:41:36;;;;;;;;;;;;;;;9.36;46.70;99115.48;213477;1278;140211;-68
2022/04/04 11:46:39;;;;;;;;;;;;;;;9.36;46.13;99110.11;213793;1279;126375;-68
2022/04/04 11:51:45;;;;;;;4.50;4.20;;;;;;;9.25;45.91;99099.48;214187;1279;126295;-68
2022/04/04 11:56:47;;;;;;;4.60;3.80;;;;;;;9.54;45.94;99085.48;213426;1277;140819;-69
2022/04/04 12:01:49;;;;;;;5.10;3.80;;;;;;;9.54;45.25;99073.18;214125;1277;139531;-67
2022/04/04 12:06:53;;;;;;;7.70;4.30;;;;;;;9.50;45.57;99059.14;214467;1277;140465;-69
2022/04/04 12:12:05;;;;;;;4.50;4.00;;;;;;;9.76;45.13;99045.80;213524;1279;140919;-68
2022/04/04 12:17:09;;;;;;;4.40;4.10;;;;;;;9.75;44.77;99038.27;214599;1277;140707;-71
2022/04/04 12:27:33;;;;;;;5.70;4.80;;;;;;;10.06;44.93;99011.21;213461;1278;141749;-68
2022/04/04 12:32:39;;;;;;;6.10;4.60;;;;;;;10.22;44.39;99009.34;213881;1277;140878;-69
2022/04/04 12:37:44;;;;;;;4.70;4.30;;;;;;;10.17;44.06;98985.39;213759;1277;140912;-69
2022/04/04 12:42:50;;;;;;;4.30;3.00;;;;;;;10.01;43.62;98983.10;214534;1277;140406;-68
2022/04/04 12:48:11;;;;;;;4.90;4.50;;;;;;;9.93;43.60;98971.17;215348;1277;140989;-71
2022/04/04 12:53:14;;;;;;;4.50;2.90;;;;;;;10.06;43.70;98963.54;213483;1279;141888;-68
2022/04/04 12:58:17;;;;;;;9.90;3.80;;;;;;;10.05;43.01;98962.63;215471;1278;140796;-70
2022/04/04 13:03:25;;;;;;;6.40;4.30;;;;;;;9.86;42.80;98951.76;215104;1279;140542;-70
2022/04/04 13:08:29;;;;;;;3.30;3.00;;;;;;;9.94;42.70;98932.84;214482;1277;139815;-69
2022/04/04 13:13:32;;;;;;;4.30;2.50;;;;;;;10.08;42.55;98919.41;213769;1279;139317;-70
2022/04/04 13:18:34;;;;;;;5.80;3.20;;;;;;;9.95;42.00;98915.71;214323;1279;140311;-67
2022/04/04 13:23:36;;;;;;;10.00;3.50;;;;;;;10.10;42.05;98893.48;214411;1277;140089;-68
2022/04/04 13:28:38;;;;;;;6.00;2.90;;;;;;;10.28;41.77;98888.16;213779;1277;140416;-68
2022/04/04 13:33:40;;;;;;;5.30;3.30;;;;;;;10.34;41.56;98870.47;214308;1279;140308;-68
2022/04/04 13:38:43;;;;;;;9.90;3.80;;;;;;;10.38;41.53;98858.98;214293;1277;140343;-69
2022/04/04 13:43:45;;;;;;;6.50;2.90;;;;;;;10.22;40.98;98850.27;213528;1277;141550;-66
2022/04/04 13:48:48;;;;;;;3.30;2.90;;;;;;;10.09;41.28;98839.52;213939;1277;140134;-69
2022/04/04 13:54:00;;;;;;;3.10;2.80;;;;;;;10.21;41.21;98831.56;213211;1281;151628;-69
2022/04/04 13:59:04;;;;;;;3.70;3.00;;;;;;;9.97;40.55;98820.20;212958;1281;139727;-67
2022/04/04 14:04:06;;;;;;;3.20;2.90;;;;;;;9.74;40.83;98812.71;213114;1277;139519;-68
2022/04/04 14:09:08;;;;;;;7.70;3.40;;;;;;;9.68;40.59;98799.27;213585;1277;139186;-67
2022/04/04 14:14:11;;;;;;;4.20;3.50;;;;;;;9.49;40.98;98781.95;213212;1277;140347;-69
2022/04/04 14:19:14;;;;;;;3.60;3.20;;;;;;;9.41;41.00;98778.20;213427;1277;141099;-68
2022/04/04 14:24:17;;;;;;;13.30;4.30;;;;;;;9.35;41.32;98762.82;213619;1279;139991;-68
2022/04/04 14:29:20;;;;;;;14.30;6.10;;;;;;;9.30;41.03;98745.33;214046;1277;139756;-68
2022/04/04 14:34:22;;;;;;;8.00;3.60;;;;;;;9.24;40.89;98741.47;215466;1277;140024;-68
2022/04/04 14:39:25;;;;;;;3.90;3.50;;;;;;;9.13;40.86;98730.37;213373;1277;139375;-67
2022/04/04 14:44:27;;;;;;;4.00;3.20;;;;;;;8.99;41.13;98718.02;214821;1277;139672;-68
2022/04/04 14:49:30;;;;;;;3.90;2.50;;;;;;;8.86;40.81;98711.71;215032;1277;139488;-69
2022/04/04 14:54:32;;;;;;;16.20;5.30;;;;;;;8.69;40.79;98706.89;215813;1277;140154;-71
2022/04/04 14:59:35;;;;;;;6.50;3.40;;;;;;;8.56;41.12;98703.54;215456;1279;139513;-68
2022/04/04 15:04:37;;;;;;;6.80;3.90;;;;;;;8.45;40.93;98694.17;215606;1277;139101;-69
2022/04/04 15:09:39;;;;;;;6.00;3.20;;;;;;;8.37;40.96;98682.11;214461;1281;141499;-68
2022/04/04 15:14:42;;;;;;;4.50;2.90;;;;;;;8.31;41.12;98665.27;213662;1281;139621;-67
2022/04/04 15:19:44;;;;;;;11.40;2.90;;;;;;;8.31;41.26;98657.99;214339;1279;141232;-66
2022/04/04 15:24:47;;;;;;;8.80;3.20;;;;;;;8.25;41.30;98652.03;214612;1277;139478;-68
2022/04/04 15:29:49;;;;;;;3.30;2.50;;;;;;;8.11;41.11;98656.13;213541;1277;140201;-68
2022/04/04 15:34:54;;;;;;;4.20;3.00;;;;;;;8.00;41.12;98640.86;213379;1277;140363;-67
2022/04/04 15:39:57;;;;;;;5.00;3.00;;;;;;;7.84;40.96;98641.59;214261;1277;139322;-67
2022/04/04 15:45:00;;;;;;;4.70;2.80;;;;;;;7.64;41.16;98633.39;214360;1277;139431;-68
2022/04/04 15:50:03;;;;;;;4.80;2.90;;;;;;;7.42;41.17;98618.27;213012;1277;139120;-67
2022/04/04 15:55:07;;;;;;;8.00;3.20;;;;;;;7.23;41.10;98616.25;214123;1277;139757;-65
2022/04/04 16:00:13;;;;;;;2.60;2.30;;;;;;;7.09;41.61;98606.48;213838;1277;211068;-69
2022/04/04 16:05:15;;;;;;;5.30;3.30;;;;;;;6.99;41.86;98594.50;214083;1277;139247;-68
2022/04/04 16:10:19;;;;;;;7.80;3.30;;;;;;;6.89;41.68;98588.06;213107;1277;139451;-68
2022/04/04 16:15:21;;;;;;;3.50;3.20;;;;;;;6.79;42.18;98577.39;213550;1277;140077;-66
2022/04/04 16:20:25;;;;;;;9.80;4.70;;;;;;;6.69;42.40;98567.48;213266;1277;140071;-68
2022/04/04 16:25:27;;;;;;;3.50;3.20;;;;;;;6.61;42.48;98563.31;213949;1277;140199;-67
2022/04/04 16:30:30;;;;;;;5.30;4.00;;;;;;;6.54;42.77;98554.27;214301;1277;140093;-67
2022/04/04 16:35:33;;;;;;;5.50;3.50;;;;;;;6.47;42.88;98544.08;212972;1279;140187;-67
2022/04/04 16:40:36;;;;;;;4.10;3.40;;;;;;;6.38;42.86;98527.05;213135;1277;140731;-66
2022/04/04 16:45:39;;;;;;;3.10;2.70;;;;;;;6.30;42.70;98509.55;215647;1277;141309;-67
2022/04/04 16:50:45;;;;;;;6.50;3.30;;;;;;;6.24;43.12;98500.06;214310;1277;140554;-68
2022/04/04 16:55:48;;;;;;;3.60;3.30;;;;;;;6.18;43.53;98491.61;215642;1277;140764;-68
2022/04/04 17:00:51;;;;;;;4.00;2.60;;;;;;;6.13;43.40;98480.69;215743;1277;140223;-67
2022/04/04 17:05:54;;;;;;;3.30;2.90;;;;;;;6.09;43.14;98470.86;215435;1277;140214;-66
2022/04/04 17:10:56;;;;;;;3.60;2.70;;;;;;;6.04;42.97;98455.73;216083;1277;140432;-69
2022/04/04 17:15:58;;;;;;;3.70;3.10;;;;;;;6.00;43.29;98447.39;215643;1277;142270;-69
2022/04/04 17:21:00;;;;;;;3.40;2.70;;;;;;;5.96;43.22;98437.80;213787;1279;152674;-67
2022/04/04 17:26:03;;;;;;;4.40;3.00;;;;;;;5.90;43.29;98434.33;214336;1277;141172;-67
2022/04/04 17:31:09;;;;;;;5.80;3.60;;;;;;;5.87;43.33;98431.73;212924;1277;150577;-65
2022/04/04 17:36:12;;;;;;;7.20;3.70;;;;;;;5.82;43.61;98427.02;214017;1277;139363;-67
2022/04/04 17:41:15;;;;;;;4.60;3.80;;;;;;;5.77;43.60;98425.83;213233;1277;140376;-67
2022/04/04 17:46:19;;;;;;;4.90;3.70;;;;;;;5.73;43.85;98423.16;214595;1277;139113;-68
2022/04/04 17:51:21;;;;;;;15.30;4.80;;;;;;;5.68;43.96;98423.85;213822;1276;139853;-67
2022/04/04 17:56:23;;;;;;;4.00;2.60;;;;;;;5.65;44.16;98419.94;212997;1277;139823;-65
2022/04/04 18:01:26;;;;;;;4.00;2.90;;;;;;;5.63;44.19;98414.23;214100;1277;140609;-68
2022/04/04 18:06:28;;;;;;;4.70;2.90;;;;;;;5.61;44.16;98411.92;214080;1277;141121;-64
2022/04/04 18:11:35;;;;;;;5.10;3.80;;;;;;;5.59;44.07;98404.85;213565;1277;141202;-67
2022/04/04 18:16:38;;;;;;;7.30;3.70;;;;;;;5.58;44.04;98401.82;213531;1279;141182;-66
2022/04/04 18:21:41;;;;;;;8.20;4.10;;;;;;;5.59;44.24;98391.30;213704;1277;140107;-66
2022/04/04 18:26:44;;;;;;;6.00;3.10;;;;;;;5.59;44.15;98398.39;212966;1277;142814;-67
2022/04/04 18:31:47;;;;;;;8.80;2.40;;;;;;;5.56;44.42;98381.98;213932;1277;140208;-66
2022/04/04 18:36:50;;;;;;;26.20;4.70;;;;;;;5.52;44.63;98375.95;213173;1279;144284;-66
2022/04/04 18:41:54;;;;;;;11.30;4.30;;;;;;;5.46;44.87;98373.21;213058;1279;140127;-66
2022/04/04 18:46:57;;;;;;;8.70;4.00;;;;;;;5.40;45.07;98364.15;213202;1279;139769;-67
2022/04/04 18:52:04;;;;;;;;;;;;;;;5.35;45.11;98353.06;214530;1277;139220;-68
2022/04/04 18:57:10;;;;;;;5.90;3.90;;;;;;;5.28;45.26;98343.08;216430;1277;126123;-67
2022/04/04 19:02:13;;;;;;;4.60;3.00;;;;;;;5.28;45.32;98341.76;213459;1277;139267;-67
2022/04/04 19:07:16;;;;;;;17.50;5.40;;;;;;;5.25;45.33;98331.84;215250;1277;139220;-69
2022/04/04 19:12:19;;;;;;;18.00;4.60;;;;;;;5.23;45.72;98332.94;215438;1279;139670;-69
2022/04/04 19:17:22;;;;;;;6.20;2.80;;;;;;;5.22;45.67;98321.98;215779;1277;139968;-69
2022/04/04 19:22:24;;;;;;;17.30;3.70;;;;;;;5.21;45.68;98311.73;214975;1277;139249;-68
2022/04/04 19:27:31;;;;;;;;;;;;;;;5.20;45.86;98306.27;215689;1275;139559;-69
2022/04/04 19:32:35;;;;;;;10.60;4.00;;;;;;;5.16;45.91;98300.55;216251;1277;125789;-68
2022/04/04 19:37:40;;;;;;;9.60;4.80;;;;;;;5.16;46.18;98294.20;213722;1277;141767;-65
2022/04/04 19:42:44;;;;;;;20.50;8.10;;;;;;;5.13;46.31;98284.79;212930;1277;138975;-66
2022/04/04 19:47:52;;;;;;;7.10;3.10;;;;;;;5.08;46.26;98272.86;214997;1277;140449;-67
2022/04/04 19:52:55;;;;;;;19.50;5.10;;;;;;;5.03;46.46;98265.52;213514;1277;141695;-66
2022/04/04 19:58:02;;;;;;;;;;;;;;;5.01;46.69;98258.45;213175;1277;140421;-67
2022/04/04 20:03:06;;;;;;;4.70;3.80;;;;;;;4.94;46.81;98244.91;214553;1277;126469;-65
2022/04/04 20:08:09;;;;;;;7.30;4.00;;;;;;;4.89;46.97;98236.20;214618;1277;140859;-68
2022/04/04 20:13:12;;;;;;;10.20;4.00;;;;;;;4.84;47.22;98227.51;213452;1277;139787;-64
2022/04/04 20:18:15;;;;;;;8.40;3.60;;;;;;;4.78;47.54;98214.18;213262;1277;141105;-67
2022/04/04 20:23:18;;;;;;;7.80;5.30;;;;;;;4.72;47.65;98205.35;213529;1277;141721;-68
2022/04/04 20:28:20;;;;;;;10.40;4.20;;;;;;;4.67;47.84;98205.00;213771;1277;153236;-69
2022/04/04 20:33:23;;;;;;;16.30;7.00;;;;;;;4.65;47.94;98191.70;212973;1277;141456;-66
2022/04/04 20:38:32;;;;;;;31.50;16.70;;;;;;;4.61;48.23;98185.70;213541;1275;140545;-70
2022/04/04 20:43:35;;;;;;;6.40;3.70;;;;;;;4.56;48.29;98176.70;213012;1277;141138;-68
2022/04/04 20:48:45;;;;;;;13.60;5.80;;;;;;;4.52;48.31;98178.20;213398;1277;139436;-68
2022/04/04 20:53:49;;;;;;;9.40;4.10;;;;;;;4.49;48.60;98178.92;214121;1277;140892;-67
2022/04/04 20:58:51;;;;;;;7.00;5.60;;;;;;;4.47;49.02;98175.05;214247;1277;140354;-68
2022/04/04 21:03:54;;;;;;;19.10;7.40;;;;;;;4.47;49.27;98170.50;213752;1277;139438;-67
2022/04/04 21:08:56;;;;;;;10.90;5.00;;;;;;;4.48;49.71;98170.73;214510;1277;142115;-67
2022/04/04 21:14:00;;;;;;;14.20;4.70;;;;;;;4.48;50.39;98179.28;214745;1277;139275;-65
2022/04/04 21:19:04;;;;;;;16.60;6.80;;;;;;;4.37;51.73;98179.10;215146;1277;139769;-68
2022/04/04 21:24:09;;;;;;;10.10;5.00;;;;;;;4.12;53.39;98175.72;215150;1277;139536;-68
2022/04/04 21:29:12;;;;;;;8.40;6.60;;;;;;;3.88;55.16;98171.15;215646;1277;141272;-69
2022/04/04 21:34:16;;;;;;;12.10;6.90;;;;;;;3.62;56.71;98166.92;215396;1279;139420;-70
2022/04/04 21:39:19;;;;;;;9.30;7.00;;;;;;;3.44;57.77;98158.00;214541;1276;139321;-67
2022/04/04 21:44:22;;;;;;;12.40;6.30;;;;;;;3.27;59.03;98149.48;213744;1277;140630;-67
2022/04/04 21:49:25;;;;;;;13.60;6.40;;;;;;;3.14;59.87;98141.61;212966;1279;141402;-69
2022/04/04 21:54:30;;;;;;;11.90;7.90;;;;;;;2.99;60.65;98131.01;214181;1277;141031;-69
2022/04/04 21:59:36;;;;;;;8.80;6.80;;;;;;;2.88;61.45;98133.44;213399;1277;140391;-64
2022/04/04 22:04:39;;;;;;;13.00;7.50;;;;;;;2.77;62.25;98132.99;213695;1277;139410;-68
2022/04/04 22:09:42;;;;;;;9.50;7.90;;;;;;;2.63;62.56;98124.32;214297;1277;140736;-70
2022/04/04 22:14:45;;;;;;;13.30;7.70;;;;;;;2.48;63.70;98111.28;212538;1277;757227;-68
2022/04/04 22:19:48;;;;;;;9.30;8.30;;;;;;;2.34;64.21;98099.61;213086;1277;140469;-68
2022/04/04 22:24:51;;;;;;;9.60;7.60;;;;;;;2.22;64.99;98109.90;213151;1277;140625;-66
2022/04/04 22:29:53;;;;;;;8.10;7.30;;;;;;;2.16;65.25;98097.84;213594;1277;139510;-67
2022/04/04 22:34:56;;;;;;;8.40;6.90;;;;;;;2.13;65.82;98092.36;213800;1279;139676;-66
2022/04/04 22:39:58;;;;;;;8.40;7.60;;;;;;;2.10;66.78;98086.33;214012;1277;140531;-67
2022/04/04 22:45:05;;;;;;;11.20;9.90;;;;;;;2.09;66.71;98087.88;214162;1277;151005;-69
2022/04/04 22:50:10;;;;;;;7.90;7.00;;;;;;;2.10;67.33;98082.20;213882;1279;139952;-70
2022/04/04 22:55:15;;;;;;;7.60;6.90;;;;;;;2.10;67.64;98074.96;212554;1277;141882;-67
2022/04/04 23:00:19;;;;;;;9.20;8.30;;;;;;;2.05;68.25;98068.39;213866;1277;141678;-68
2022/04/04 23:05:22;;;;;;;10.10;8.60;;;;;;;2.03;68.42;98063.85;213936;1277;141288;-66
2022/04/04 23:10:25;;;;;;;8.80;8.00;;;;;;;2.03;68.69;98049.72;212779;1278;142521;-66
2022/04/04 23:15:28;;;;;;;6.50;5.90;;;;;;;2.04;69.19;98044.90;214034;1277;140895;-67
2022/04/04 23:20:32;;;;;;;9.90;8.80;;;;;;;2.02;69.35;98049.62;212639;1278;141980;-65
2022/04/04 23:25:34;;;;;;;7.60;6.90;;;;;;;1.99;69.48;98036.39;214937;1279;141310;-67
2022/04/04 23:30:37;;;;;;;8.80;7.70;;;;;;;1.95;70.08;98042.38;214532;1277;140745;-66
2022/04/04 23:35:42;;;;;;;8.10;7.30;;;;;;;1.92;70.35;98040.79;215369;1277;140312;-67
2022/04/04 23:40:45;;;;;;;8.10;6.50;;;;;;;1.92;70.34;98028.90;215458;1277;139941;-69
2022/04/04 23:45:48;;;;;;;7.70;6.90;;;;;;;1.96;70.50;98022.92;215630;1277;140491;-70
2022/04/04 23:50:51;;;;;;;8.60;6.80;;;;;;;1.99;70.79;98010.91;215152;1279;140308;-67